sensor_id;sensor_type;location;lat;lon;timestamp;P1;durP1;ratioP1;P2;durP2;ratioP2
12816;SDS011;6473;51.552;6.716;2023-07-16T00:00:54;2.10;;;1.80;;
12816;SDS011;6473;51.552;6.716;2023-07-16T00:03:22;2.00;;;1.77;;
12816;SDS011;6473;51.552;6.716;2023-07-16T00:05:49;2.95;;;2.13;;
12816;SDS011;6473;51.552;6.716;2023-07-16T00:08:16;2.47;;;2.03;;
12816;SDS011;6473;51.552;6.716;2023-07-16T00:10:43;2.83;;;2.00;;
12816;SDS011;6473;51.552;6.716;2023-07-16T00:13:10;2.97;;;2.22;;
12816;SDS011;6473;51.552;6.716;2023-07-16T00:15:37;2.92;;;2.05;;
12816;SDS011;6473;51.552;6.716;2023-07-16T00:18:04;4.20;;;2.38;;
12816;SDS011;6473;51.552;6.716;2023-07-16T00:20:32;5.55;;;2.50;;
12816;SDS011;6473;51.552;6.716;2023-07-16T00:22:59;3.72;;;2.30;;
12816;SDS011;6473;51.552;6.716;2023-07-16T00:25:26;2.75;;;2.20;;
12816;SDS011;6473;51.552;6.716;2023-07-16T00:27:53;2.95;;;2.13;;
12816;SDS011;6473;51.552;6.716;2023-07-16T00:30:20;2.53;;;2.30;;
12816;SDS011;6473;51.552;6.716;2023-07-16T00:32:47;3.50;;;2.17;;
12816;SDS011;6473;51.552;6.716;2023-07-16T00:35:14;2.50;;;2.17;;
12816;SDS011;6473;51.552;6.716;2023-07-16T00:37:42;2.70;;;2.13;;
12816;SDS011;6473;51.552;6.716;2023-07-16T00:40:10;5.25;;;2.40;;
12816;SDS011;6473;51.552;6.716;2023-07-16T00:42:38;2.75;;;2.42;;
12816;SDS011;6473;51.552;6.716;2023-07-16T00:45:08;2.60;;;2.40;;
12816;SDS011;6473;51.552;6.716;2023-07-16T00:47:37;2.35;;;2.15;;
12816;SDS011;6473;51.552;6.716;2023-07-16T00:50:05;4.50;;;2.65;;
12816;SDS011;6473;51.552;6.716;2023-07-16T00:52:33;2.05;;;1.80;;
12816;SDS011;6473;51.552;6.716;2023-07-16T00:55:02;2.47;;;2.28;;
12816;SDS011;6473;51.552;6.716;2023-07-16T00:57:29;4.47;;;2.40;;
12816;SDS011;6473;51.552;6.716;2023-07-16T00:59:56;2.97;;;2.35;;
12816;SDS011;6473;51.552;6.716;2023-07-16T01:02:23;3.97;;;2.47;;
12816;SDS011;6473;51.552;6.716;2023-07-16T01:04:51;2.92;;;2.55;;
12816;SDS011;6473;51.552;6.716;2023-07-16T01:07:18;4.70;;;2.65;;
12816;SDS011;6473;51.552;6.716;2023-07-16T01:09:49;5.13;;;2.70;;
12816;SDS011;6473;51.552;6.716;2023-07-16T01:12:18;4.80;;;2.50;;
12816;SDS011;6473;51.552;6.716;2023-07-16T01:14:47;3.20;;;2.53;;
12816;SDS011;6473;51.552;6.716;2023-07-16T01:17:15;5.47;;;3.00;;
12816;SDS011;6473;51.552;6.716;2023-07-16T01:19:42;4.68;;;2.70;;
12816;SDS011;6473;51.552;6.716;2023-07-16T01:25:09;3.95;;;2.70;;
12816;SDS011;6473;51.552;6.716;2023-07-16T01:27:55;4.22;;;2.45;;
12816;SDS011;6473;51.552;6.716;2023-07-16T01:30:35;3.83;;;2.70;;
12816;SDS011;6473;51.552;6.716;2023-07-16T01:33:05;3.20;;;2.75;;
12816;SDS011;6473;51.552;6.716;2023-07-16T01:35:35;4.80;;;2.80;;
12816;SDS011;6473;51.552;6.716;2023-07-16T01:38:03;4.95;;;2.83;;
12816;SDS011;6473;51.552;6.716;2023-07-16T01:40:30;5.07;;;3.00;;
12816;SDS011;6473;51.552;6.716;2023-07-16T01:42:57;3.83;;;3.13;;
12816;SDS011;6473;51.552;6.716;2023-07-16T01:45:24;4.95;;;3.05;;
12816;SDS011;6473;51.552;6.716;2023-07-16T01:47:55;3.47;;;3.10;;
12816;SDS011;6473;51.552;6.716;2023-07-16T01:50:30;4.35;;;3.17;;
12816;SDS011;6473;51.552;6.716;2023-07-16T01:52:57;3.88;;;3.58;;
12816;SDS011;6473;51.552;6.716;2023-07-16T01:55:24;5.85;;;3.38;;
12816;SDS011;6473;51.552;6.716;2023-07-16T01:57:51;6.25;;;3.50;;
12816;SDS011;6473;51.552;6.716;2023-07-16T02:00:18;4.15;;;3.10;;
12816;SDS011;6473;51.552;6.716;2023-07-16T02:02:45;5.20;;;2.92;;
12816;SDS011;6473;51.552;6.716;2023-07-16T02:05:14;4.22;;;3.33;;
12816;SDS011;6473;51.552;6.716;2023-07-16T02:07:42;3.92;;;2.65;;
12816;SDS011;6473;51.552;6.716;2023-07-16T02:10:10;3.28;;;2.97;;
12816;SDS011;6473;51.552;6.716;2023-07-16T02:12:37;4.75;;;2.97;;
12816;SDS011;6473;51.552;6.716;2023-07-16T02:15:04;5.90;;;3.00;;
12816;SDS011;6473;51.552;6.716;2023-07-16T02:17:35;3.58;;;3.28;;
12816;SDS011;6473;51.552;6.716;2023-07-16T02:20:02;3.83;;;3.15;;
12816;SDS011;6473;51.552;6.716;2023-07-16T02:22:32;4.50;;;3.28;;
12816;SDS011;6473;51.552;6.716;2023-07-16T02:25:00;5.82;;;3.45;;
12816;SDS011;6473;51.552;6.716;2023-07-16T02:27:27;5.90;;;3.40;;
12816;SDS011;6473;51.552;6.716;2023-07-16T02:29:54;3.50;;;3.20;;
12816;SDS011;6473;51.552;6.716;2023-07-16T02:32:21;3.88;;;3.08;;
12816;SDS011;6473;51.552;6.716;2023-07-16T02:34:48;4.20;;;2.97;;
12816;SDS011;6473;51.552;6.716;2023-07-16T02:37:15;5.20;;;3.25;;
12816;SDS011;6473;51.552;6.716;2023-07-16T02:39:44;5.07;;;3.00;;
12816;SDS011;6473;51.552;6.716;2023-07-16T02:42:13;3.40;;;3.10;;
12816;SDS011;6473;51.552;6.716;2023-07-16T02:44:40;4.07;;;2.83;;
12816;SDS011;6473;51.552;6.716;2023-07-16T02:47:09;3.13;;;2.67;;
12816;SDS011;6473;51.552;6.716;2023-07-16T02:49:36;4.20;;;2.95;;
12816;SDS011;6473;51.552;6.716;2023-07-16T02:52:04;2.58;;;2.35;;
12816;SDS011;6473;51.552;6.716;2023-07-16T02:54:31;3.67;;;2.65;;
12816;SDS011;6473;51.552;6.716;2023-07-16T02:56:59;5.70;;;2.85;;
12816;SDS011;6473;51.552;6.716;2023-07-16T02:59:26;3.13;;;2.55;;
12816;SDS011;6473;51.552;6.716;2023-07-16T03:01:53;2.95;;;2.60;;
12816;SDS011;6473;51.552;6.716;2023-07-16T03:04:20;3.08;;;2.67;;
12816;SDS011;6473;51.552;6.716;2023-07-16T03:06:47;4.72;;;2.33;;
12816;SDS011;6473;51.552;6.716;2023-07-16T03:09:14;4.30;;;2.45;;
12816;SDS011;6473;51.552;6.716;2023-07-16T03:11:41;3.55;;;2.65;;
12816;SDS011;6473;51.552;6.716;2023-07-16T03:14:10;5.43;;;2.47;;
12816;SDS011;6473;51.552;6.716;2023-07-16T03:16:37;3.60;;;2.28;;
12816;SDS011;6473;51.552;6.716;2023-07-16T03:19:04;4.25;;;2.58;;
12816;SDS011;6473;51.552;6.716;2023-07-16T03:21:31;3.03;;;2.00;;
12816;SDS011;6473;51.552;6.716;2023-07-16T03:23:58;4.95;;;2.13;;
12816;SDS011;6473;51.552;6.716;2023-07-16T03:26:25;3.78;;;2.30;;
12816;SDS011;6473;51.552;6.716;2023-07-16T03:28:52;3.80;;;2.20;;
12816;SDS011;6473;51.552;6.716;2023-07-16T03:31:23;3.70;;;2.30;;
12816;SDS011;6473;51.552;6.716;2023-07-16T03:33:50;4.22;;;2.22;;
12816;SDS011;6473;51.552;6.716;2023-07-16T03:36:17;5.32;;;2.33;;
12816;SDS011;6473;51.552;6.716;2023-07-16T03:38:44;6.80;;;2.40;;
12816;SDS011;6473;51.552;6.716;2023-07-16T03:41:11;5.53;;;2.28;;
12816;SDS011;6473;51.552;6.716;2023-07-16T03:43:38;4.50;;;2.72;;
12816;SDS011;6473;51.552;6.716;2023-07-16T03:46:15;5.10;;;2.50;;
12816;SDS011;6473;51.552;6.716;2023-07-16T03:48:44;3.00;;;1.90;;
12816;SDS011;6473;51.552;6.716;2023-07-16T03:51:11;4.68;;;2.10;;
12816;SDS011;6473;51.552;6.716;2023-07-16T03:53:38;5.30;;;2.15;;
12816;SDS011;6473;51.552;6.716;2023-07-16T03:56:05;5.13;;;2.63;;
12816;SDS011;6473;51.552;6.716;2023-07-16T03:58:34;4.47;;;2.60;;
12816;SDS011;6473;51.552;6.716;2023-07-16T04:01:02;2.55;;;2.15;;
12816;SDS011;6473;51.552;6.716;2023-07-16T04:03:29;3.70;;;2.40;;
12816;SDS011;6473;51.552;6.716;2023-07-16T04:06:02;5.95;;;2.67;;
12816;SDS011;6473;51.552;6.716;2023-07-16T04:08:29;6.32;;;2.28;;
12816;SDS011;6473;51.552;6.716;2023-07-16T04:10:56;3.78;;;2.10;;
12816;SDS011;6473;51.552;6.716;2023-07-16T04:13:23;2.35;;;2.13;;
12816;SDS011;6473;51.552;6.716;2023-07-16T04:15:50;2.50;;;1.98;;
12816;SDS011;6473;51.552;6.716;2023-07-16T04:18:18;3.55;;;2.30;;
12816;SDS011;6473;51.552;6.716;2023-07-16T04:20:45;3.38;;;2.35;;
12816;SDS011;6473;51.552;6.716;2023-07-16T04:23:13;4.57;;;2.53;;
12816;SDS011;6473;51.552;6.716;2023-07-16T04:25:40;4.65;;;2.20;;
12816;SDS011;6473;51.552;6.716;2023-07-16T04:28:07;4.53;;;2.55;;
12816;SDS011;6473;51.552;6.716;2023-07-16T04:30:34;4.97;;;2.65;;
12816;SDS011;6473;51.552;6.716;2023-07-16T04:33:02;6.65;;;2.75;;
12816;SDS011;6473;51.552;6.716;2023-07-16T04:35:29;6.25;;;2.83;;
12816;SDS011;6473;51.552;6.716;2023-07-16T04:37:56;3.63;;;2.80;;
12816;SDS011;6473;51.552;6.716;2023-07-16T04:40:24;4.07;;;2.80;;
12816;SDS011;6473;51.552;6.716;2023-07-16T04:42:51;5.03;;;2.47;;
12816;SDS011;6473;51.552;6.716;2023-07-16T04:45:18;4.88;;;2.78;;
12816;SDS011;6473;51.552;6.716;2023-07-16T04:47:45;5.57;;;2.67;;
12816;SDS011;6473;51.552;6.716;2023-07-16T04:50:12;4.82;;;2.72;;
12816;SDS011;6473;51.552;6.716;2023-07-16T04:52:38;7.32;;;2.90;;
12816;SDS011;6473;51.552;6.716;2023-07-16T04:55:05;4.90;;;2.67;;
12816;SDS011;6473;51.552;6.716;2023-07-16T04:57:34;3.72;;;2.50;;
12816;SDS011;6473;51.552;6.716;2023-07-16T05:00:01;3.33;;;2.53;;
12816;SDS011;6473;51.552;6.716;2023-07-16T05:02:31;5.63;;;2.47;;
12816;SDS011;6473;51.552;6.716;2023-07-16T05:04:59;4.55;;;2.70;;
12816;SDS011;6473;51.552;6.716;2023-07-16T05:07:26;3.28;;;2.50;;
12816;SDS011;6473;51.552;6.716;2023-07-16T05:09:53;4.70;;;2.40;;
12816;SDS011;6473;51.552;6.716;2023-07-16T05:12:19;4.90;;;2.75;;
12816;SDS011;6473;51.552;6.716;2023-07-16T05:14:48;5.10;;;2.50;;
12816;SDS011;6473;51.552;6.716;2023-07-16T05:17:14;4.05;;;2.80;;
12816;SDS011;6473;51.552;6.716;2023-07-16T05:19:42;5.97;;;2.92;;
12816;SDS011;6473;51.552;6.716;2023-07-16T05:22:09;3.10;;;2.80;;
12816;SDS011;6473;51.552;6.716;2023-07-16T05:24:36;5.20;;;2.63;;
12816;SDS011;6473;51.552;6.716;2023-07-16T05:27:03;5.15;;;2.80;;
12816;SDS011;6473;51.552;6.716;2023-07-16T05:29:30;5.43;;;3.00;;
12816;SDS011;6473;51.552;6.716;2023-07-16T05:31:58;3.38;;;2.65;;
12816;SDS011;6473;51.552;6.716;2023-07-16T05:34:25;4.63;;;2.65;;
12816;SDS011;6473;51.552;6.716;2023-07-16T05:36:52;7.15;;;2.70;;
12816;SDS011;6473;51.552;6.716;2023-07-16T05:39:20;4.28;;;2.47;;
12816;SDS011;6473;51.552;6.716;2023-07-16T05:41:47;4.47;;;2.60;;
12816;SDS011;6473;51.552;6.716;2023-07-16T05:44:14;3.60;;;2.28;;
12816;SDS011;6473;51.552;6.716;2023-07-16T05:46:41;5.30;;;2.80;;
12816;SDS011;6473;51.552;6.716;2023-07-16T05:49:09;8.00;;;2.92;;
12816;SDS011;6473;51.552;6.716;2023-07-16T05:51:36;4.00;;;2.70;;
12816;SDS011;6473;51.552;6.716;2023-07-16T05:54:03;5.10;;;2.72;;
12816;SDS011;6473;51.552;6.716;2023-07-16T05:56:30;5.47;;;2.95;;
12816;SDS011;6473;51.552;6.716;2023-07-16T05:58:57;5.10;;;2.65;;
12816;SDS011;6473;51.552;6.716;2023-07-16T06:01:24;5.72;;;2.60;;
12816;SDS011;6473;51.552;6.716;2023-07-16T06:03:51;4.47;;;2.47;;
12816;SDS011;6473;51.552;6.716;2023-07-16T06:06:20;5.82;;;2.70;;
12816;SDS011;6473;51.552;6.716;2023-07-16T06:08:47;5.35;;;2.72;;
12816;SDS011;6473;51.552;6.716;2023-07-16T06:11:14;5.15;;;3.30;;
12816;SDS011;6473;51.552;6.716;2023-07-16T06:13:41;4.93;;;3.03;;
12816;SDS011;6473;51.552;6.716;2023-07-16T06:16:08;5.03;;;2.60;;
12816;SDS011;6473;51.552;6.716;2023-07-16T06:18:35;5.78;;;3.15;;
12816;SDS011;6473;51.552;6.716;2023-07-16T06:21:02;3.92;;;2.88;;
12816;SDS011;6473;51.552;6.716;2023-07-16T06:23:30;8.10;;;3.50;;
12816;SDS011;6473;51.552;6.716;2023-07-16T06:25:57;5.32;;;3.13;;
12816;SDS011;6473;51.552;6.716;2023-07-16T06:28:24;4.95;;;2.80;;
12816;SDS011;6473;51.552;6.716;2023-07-16T06:30:51;4.82;;;3.20;;
12816;SDS011;6473;51.552;6.716;2023-07-16T06:33:18;4.53;;;2.88;;
12816;SDS011;6473;51.552;6.716;2023-07-16T06:35:45;7.05;;;3.35;;
12816;SDS011;6473;51.552;6.716;2023-07-16T06:38:13;3.25;;;2.78;;
12816;SDS011;6473;51.552;6.716;2023-07-16T06:40:45;8.38;;;3.30;;
12816;SDS011;6473;51.552;6.716;2023-07-16T06:43:13;5.93;;;2.78;;
12816;SDS011;6473;51.552;6.716;2023-07-16T06:45:40;4.50;;;3.05;;
12816;SDS011;6473;51.552;6.716;2023-07-16T06:48:07;5.45;;;3.20;;
12816;SDS011;6473;51.552;6.716;2023-07-16T06:50:34;7.63;;;3.10;;
12816;SDS011;6473;51.552;6.716;2023-07-16T06:53:01;8.07;;;3.20;;
12816;SDS011;6473;51.552;6.716;2023-07-16T06:55:29;5.63;;;3.22;;
12816;SDS011;6473;51.552;6.716;2023-07-16T06:58:01;5.35;;;3.08;;
12816;SDS011;6473;51.552;6.716;2023-07-16T07:00:28;4.78;;;2.80;;
12816;SDS011;6473;51.552;6.716;2023-07-16T07:02:56;7.00;;;3.40;;
12816;SDS011;6473;51.552;6.716;2023-07-16T07:05:24;4.18;;;3.30;;
12816;SDS011;6473;51.552;6.716;2023-07-16T07:07:51;6.60;;;3.97;;
12816;SDS011;6473;51.552;6.716;2023-07-16T07:10:19;6.53;;;3.25;;
12816;SDS011;6473;51.552;6.716;2023-07-16T07:12:46;4.57;;;3.22;;
12816;SDS011;6473;51.552;6.716;2023-07-16T07:15:15;6.53;;;3.65;;
12816;SDS011;6473;51.552;6.716;2023-07-16T07:17:42;7.88;;;3.30;;
12816;SDS011;6473;51.552;6.716;2023-07-16T07:20:12;6.45;;;3.70;;
12816;SDS011;6473;51.552;6.716;2023-07-16T07:22:39;6.85;;;3.47;;
12816;SDS011;6473;51.552;6.716;2023-07-16T07:25:06;4.32;;;3.22;;
12816;SDS011;6473;51.552;6.716;2023-07-16T07:27:33;5.07;;;3.75;;
12816;SDS011;6473;51.552;6.716;2023-07-16T07:30:00;7.07;;;3.67;;
12816;SDS011;6473;51.552;6.716;2023-07-16T07:32:29;5.95;;;4.10;;
12816;SDS011;6473;51.552;6.716;2023-07-16T07:34:55;4.55;;;3.45;;
12816;SDS011;6473;51.552;6.716;2023-07-16T07:37:22;4.95;;;3.72;;
12816;SDS011;6473;51.552;6.716;2023-07-16T07:39:51;8.48;;;3.83;;
12816;SDS011;6473;51.552;6.716;2023-07-16T07:42:18;5.97;;;3.75;;
12816;SDS011;6473;51.552;6.716;2023-07-16T07:44:45;6.13;;;4.15;;
12816;SDS011;6473;51.552;6.716;2023-07-16T07:47:12;9.18;;;4.18;;
12816;SDS011;6473;51.552;6.716;2023-07-16T07:49:40;5.35;;;3.70;;
12816;SDS011;6473;51.552;6.716;2023-07-16T07:52:07;7.38;;;3.92;;
12816;SDS011;6473;51.552;6.716;2023-07-16T07:54:34;6.13;;;3.63;;
12816;SDS011;6473;51.552;6.716;2023-07-16T07:57:01;5.90;;;3.45;;
12816;SDS011;6473;51.552;6.716;2023-07-16T07:59:29;5.60;;;3.67;;
12816;SDS011;6473;51.552;6.716;2023-07-16T08:01:57;9.55;;;4.38;;
12816;SDS011;6473;51.552;6.716;2023-07-16T08:04:24;7.75;;;4.25;;
12816;SDS011;6473;51.552;6.716;2023-07-16T08:06:52;5.57;;;3.35;;
12816;SDS011;6473;51.552;6.716;2023-07-16T08:09:20;6.35;;;3.80;;
12816;SDS011;6473;51.552;6.716;2023-07-16T08:11:47;6.20;;;3.60;;
12816;SDS011;6473;51.552;6.716;2023-07-16T08:14:14;5.30;;;3.60;;
12816;SDS011;6473;51.552;6.716;2023-07-16T08:16:41;5.15;;;3.72;;
12816;SDS011;6473;51.552;6.716;2023-07-16T08:19:08;5.30;;;3.92;;
12816;SDS011;6473;51.552;6.716;2023-07-16T08:21:35;4.00;;;3.60;;
12816;SDS011;6473;51.552;6.716;2023-07-16T08:24:05;4.60;;;3.50;;
12816;SDS011;6473;51.552;6.716;2023-07-16T08:26:32;4.07;;;3.63;;
12816;SDS011;6473;51.552;6.716;2023-07-16T08:28:59;7.63;;;3.85;;
12816;SDS011;6473;51.552;6.716;2023-07-16T08:31:27;4.22;;;3.47;;
12816;SDS011;6473;51.552;6.716;2023-07-16T08:33:54;5.55;;;3.65;;
12816;SDS011;6473;51.552;6.716;2023-07-16T08:36:21;5.00;;;3.45;;
12816;SDS011;6473;51.552;6.716;2023-07-16T08:38:48;4.80;;;3.58;;
12816;SDS011;6473;51.552;6.716;2023-07-16T08:41:16;3.97;;;3.33;;
12816;SDS011;6473;51.552;6.716;2023-07-16T08:43:44;5.53;;;3.63;;
12816;SDS011;6473;51.552;6.716;2023-07-16T08:46:12;4.95;;;3.20;;
12816;SDS011;6473;51.552;6.716;2023-07-16T08:48:39;8.13;;;3.33;;
12816;SDS011;6473;51.552;6.716;2023-07-16T08:51:07;5.50;;;3.80;;
12816;SDS011;6473;51.552;6.716;2023-07-16T08:53:36;4.63;;;3.10;;
12816;SDS011;6473;51.552;6.716;2023-07-16T08:56:04;5.22;;;3.78;;
12816;SDS011;6473;51.552;6.716;2023-07-16T08:58:32;7.20;;;3.78;;
12816;SDS011;6473;51.552;6.716;2023-07-16T09:00:59;5.47;;;3.58;;
12816;SDS011;6473;51.552;6.716;2023-07-16T09:03:26;4.78;;;3.45;;
12816;SDS011;6473;51.552;6.716;2023-07-16T09:05:53;5.47;;;3.22;;
12816;SDS011;6473;51.552;6.716;2023-07-16T09:08:21;7.22;;;3.25;;
12816;SDS011;6473;51.552;6.716;2023-07-16T09:10:53;6.80;;;3.70;;
12816;SDS011;6473;51.552;6.716;2023-07-16T09:13:21;5.85;;;2.90;;
12816;SDS011;6473;51.552;6.716;2023-07-16T09:15:53;4.72;;;3.35;;
12816;SDS011;6473;51.552;6.716;2023-07-16T09:18:21;4.28;;;3.25;;
12816;SDS011;6473;51.552;6.716;2023-07-16T09:20:53;5.50;;;2.97;;
12816;SDS011;6473;51.552;6.716;2023-07-16T09:23:21;5.45;;;3.08;;
12816;SDS011;6473;51.552;6.716;2023-07-16T09:25:50;3.92;;;3.38;;
12816;SDS011;6473;51.552;6.716;2023-07-16T09:28:18;4.28;;;2.88;;
12816;SDS011;6473;51.552;6.716;2023-07-16T09:30:45;8.88;;;4.03;;
12816;SDS011;6473;51.552;6.716;2023-07-16T09:33:14;5.82;;;3.58;;
12816;SDS011;6473;51.552;6.716;2023-07-16T09:35:43;4.38;;;3.50;;
12816;SDS011;6473;51.552;6.716;2023-07-16T09:38:10;7.20;;;3.38;;
12816;SDS011;6473;51.552;6.716;2023-07-16T09:40:37;6.45;;;3.40;;
12816;SDS011;6473;51.552;6.716;2023-07-16T09:43:05;4.72;;;3.10;;
12816;SDS011;6473;51.552;6.716;2023-07-16T09:45:33;4.18;;;3.13;;
12816;SDS011;6473;51.552;6.716;2023-07-16T09:47:59;6.18;;;3.40;;
12816;SDS011;6473;51.552;6.716;2023-07-16T09:50:28;6.80;;;3.65;;
12816;SDS011;6473;51.552;6.716;2023-07-16T09:52:58;3.97;;;2.88;;
12816;SDS011;6473;51.552;6.716;2023-07-16T09:55:25;3.53;;;2.80;;
12816;SDS011;6473;51.552;6.716;2023-07-16T09:57:54;6.07;;;2.90;;
12816;SDS011;6473;51.552;6.716;2023-07-16T10:00:23;4.30;;;2.97;;
12816;SDS011;6473;51.552;6.716;2023-07-16T10:02:51;5.60;;;3.03;;
12816;SDS011;6473;51.552;6.716;2023-07-16T10:05:19;4.85;;;3.05;;
12816;SDS011;6473;51.552;6.716;2023-07-16T10:07:53;3.35;;;2.63;;
12816;SDS011;6473;51.552;6.716;2023-07-16T10:10:25;5.57;;;3.45;;
12816;SDS011;6473;51.552;6.716;2023-07-16T10:12:56;7.60;;;3.10;;
12816;SDS011;6473;51.552;6.716;2023-07-16T10:15:25;4.18;;;2.90;;
12816;SDS011;6473;51.552;6.716;2023-07-16T10:17:53;5.80;;;3.05;;
12816;SDS011;6473;51.552;6.716;2023-07-16T10:20:28;4.57;;;3.00;;
12816;SDS011;6473;51.552;6.716;2023-07-16T10:22:57;4.13;;;2.50;;
12816;SDS011;6473;51.552;6.716;2023-07-16T10:25:24;4.10;;;2.72;;
12816;SDS011;6473;51.552;6.716;2023-07-16T10:27:53;4.15;;;3.03;;
12816;SDS011;6473;51.552;6.716;2023-07-16T10:30:20;6.03;;;3.20;;
12816;SDS011;6473;51.552;6.716;2023-07-16T10:32:47;4.90;;;2.90;;
12816;SDS011;6473;51.552;6.716;2023-07-16T10:35:16;6.07;;;3.03;;
12816;SDS011;6473;51.552;6.716;2023-07-16T10:37:43;4.18;;;3.10;;
12816;SDS011;6473;51.552;6.716;2023-07-16T10:40:12;4.82;;;2.95;;
12816;SDS011;6473;51.552;6.716;2023-07-16T10:42:40;5.80;;;3.28;;
12816;SDS011;6473;51.552;6.716;2023-07-16T10:45:08;6.38;;;2.83;;
12816;SDS011;6473;51.552;6.716;2023-07-16T10:47:37;4.82;;;3.40;;
12816;SDS011;6473;51.552;6.716;2023-07-16T10:50:06;4.75;;;3.03;;
12816;SDS011;6473;51.552;6.716;2023-07-16T10:52:34;6.10;;;3.10;;
12816;SDS011;6473;51.552;6.716;2023-07-16T10:55:02;4.05;;;3.20;;
12816;SDS011;6473;51.552;6.716;2023-07-16T10:57:31;5.03;;;2.65;;
12816;SDS011;6473;51.552;6.716;2023-07-16T10:59:58;3.40;;;3.03;;
12816;SDS011;6473;51.552;6.716;2023-07-16T11:02:26;6.15;;;3.08;;
12816;SDS011;6473;51.552;6.716;2023-07-16T11:04:53;5.05;;;3.00;;
12816;SDS011;6473;51.552;6.716;2023-07-16T11:07:22;5.55;;;3.42;;
12816;SDS011;6473;51.552;6.716;2023-07-16T11:09:50;5.00;;;3.03;;
12816;SDS011;6473;51.552;6.716;2023-07-16T11:12:18;6.63;;;3.40;;
12816;SDS011;6473;51.552;6.716;2023-07-16T11:14:49;6.03;;;3.30;;
12816;SDS011;6473;51.552;6.716;2023-07-16T11:17:17;3.67;;;3.17;;
12816;SDS011;6473;51.552;6.716;2023-07-16T11:19:45;8.00;;;3.50;;
12816;SDS011;6473;51.552;6.716;2023-07-16T11:22:14;7.53;;;3.40;;
12816;SDS011;6473;51.552;6.716;2023-07-16T11:24:42;3.90;;;3.20;;
12816;SDS011;6473;51.552;6.716;2023-07-16T11:27:13;3.65;;;2.65;;
12816;SDS011;6473;51.552;6.716;2023-07-16T11:29:45;5.20;;;3.25;;
12816;SDS011;6473;51.552;6.716;2023-07-16T11:32:25;3.85;;;3.10;;
12816;SDS011;6473;51.552;6.716;2023-07-16T11:34:53;4.72;;;2.78;;
12816;SDS011;6473;51.552;6.716;2023-07-16T11:37:21;4.28;;;2.67;;
12816;SDS011;6473;51.552;6.716;2023-07-16T11:39:48;5.32;;;2.75;;
12816;SDS011;6473;51.552;6.716;2023-07-16T11:42:18;5.43;;;3.08;;
12816;SDS011;6473;51.552;6.716;2023-07-16T11:44:51;6.40;;;3.20;;
12816;SDS011;6473;51.552;6.716;2023-07-16T11:47:18;3.78;;;2.75;;
12816;SDS011;6473;51.552;6.716;2023-07-16T11:49:45;7.78;;;3.15;;
12816;SDS011;6473;51.552;6.716;2023-07-16T11:52:11;3.83;;;3.05;;
12816;SDS011;6473;51.552;6.716;2023-07-16T11:54:38;3.55;;;2.47;;
12816;SDS011;6473;51.552;6.716;2023-07-16T11:57:05;5.15;;;2.60;;
12816;SDS011;6473;51.552;6.716;2023-07-16T11:59:32;4.00;;;2.50;;
12816;SDS011;6473;51.552;6.716;2023-07-16T12:02:01;4.32;;;2.60;;
12816;SDS011;6473;51.552;6.716;2023-07-16T12:04:28;3.95;;;2.40;;
12816;SDS011;6473;51.552;6.716;2023-07-16T12:06:55;3.60;;;2.40;;
12816;SDS011;6473;51.552;6.716;2023-07-16T12:09:21;3.30;;;2.85;;
12816;SDS011;6473;51.552;6.716;2023-07-16T12:11:48;2.53;;;2.28;;
12816;SDS011;6473;51.552;6.716;2023-07-16T12:14:15;2.65;;;2.28;;
12816;SDS011;6473;51.552;6.716;2023-07-16T12:16:42;2.80;;;2.15;;
12816;SDS011;6473;51.552;6.716;2023-07-16T12:19:10;5.40;;;2.10;;
12816;SDS011;6473;51.552;6.716;2023-07-16T12:21:37;4.18;;;2.08;;
12816;SDS011;6473;51.552;6.716;2023-07-16T12:24:04;3.50;;;2.50;;
12816;SDS011;6473;51.552;6.716;2023-07-16T12:26:31;4.75;;;2.47;;
12816;SDS011;6473;51.552;6.716;2023-07-16T12:28:59;4.40;;;2.00;;
12816;SDS011;6473;51.552;6.716;2023-07-16T12:31:28;2.97;;;2.13;;
12816;SDS011;6473;51.552;6.716;2023-07-16T12:33:56;4.03;;;2.17;;
12816;SDS011;6473;51.552;6.716;2023-07-16T12:36:24;2.60;;;2.40;;
12816;SDS011;6473;51.552;6.716;2023-07-16T12:38:51;2.72;;;2.22;;
12816;SDS011;6473;51.552;6.716;2023-07-16T12:41:18;3.70;;;2.05;;
12816;SDS011;6473;51.552;6.716;2023-07-16T12:43:46;2.25;;;2.05;;
12816;SDS011;6473;51.552;6.716;2023-07-16T12:46:13;2.75;;;2.03;;
12816;SDS011;6473;51.552;6.716;2023-07-16T12:48:40;3.63;;;2.10;;
12816;SDS011;6473;51.552;6.716;2023-07-16T12:51:07;3.58;;;2.38;;
12816;SDS011;6473;51.552;6.716;2023-07-16T12:53:35;6.13;;;2.45;;
12816;SDS011;6473;51.552;6.716;2023-07-16T12:56:03;3.15;;;2.10;;
12816;SDS011;6473;51.552;6.716;2023-07-16T12:58:30;3.17;;;2.00;;
12816;SDS011;6473;51.552;6.716;2023-07-16T13:00:57;2.75;;;2.20;;
12816;SDS011;6473;51.552;6.716;2023-07-16T13:03:25;3.50;;;2.13;;
12816;SDS011;6473;51.552;6.716;2023-07-16T13:05:52;2.70;;;2.30;;
12816;SDS011;6473;51.552;6.716;2023-07-16T13:08:19;3.03;;;2.17;;
12816;SDS011;6473;51.552;6.716;2023-07-16T13:10:48;2.80;;;2.10;;
12816;SDS011;6473;51.552;6.716;2023-07-16T13:13:14;3.15;;;2.10;;
12816;SDS011;6473;51.552;6.716;2023-07-16T13:15:41;2.80;;;2.17;;
12816;SDS011;6473;51.552;6.716;2023-07-16T13:18:09;7.53;;;2.40;;
12816;SDS011;6473;51.552;6.716;2023-07-16T13:20:36;3.60;;;2.15;;
12816;SDS011;6473;51.552;6.716;2023-07-16T13:23:03;5.05;;;2.55;;
12816;SDS011;6473;51.552;6.716;2023-07-16T13:25:30;4.28;;;2.40;;
12816;SDS011;6473;51.552;6.716;2023-07-16T13:27:58;2.30;;;2.08;;
12816;SDS011;6473;51.552;6.716;2023-07-16T13:30:25;2.10;;;1.92;;
12816;SDS011;6473;51.552;6.716;2023-07-16T13:32:52;3.28;;;2.20;;
12816;SDS011;6473;51.552;6.716;2023-07-16T13:35:21;5.10;;;2.42;;
12816;SDS011;6473;51.552;6.716;2023-07-16T13:37:48;2.30;;;2.10;;
12816;SDS011;6473;51.552;6.716;2023-07-16T13:40:15;2.35;;;2.15;;
12816;SDS011;6473;51.552;6.716;2023-07-16T13:42:45;4.43;;;2.10;;
12816;SDS011;6473;51.552;6.716;2023-07-16T13:45:13;2.75;;;2.13;;
12816;SDS011;6473;51.552;6.716;2023-07-16T13:47:40;2.83;;;2.20;;
12816;SDS011;6473;51.552;6.716;2023-07-16T13:50:08;4.07;;;2.40;;
12816;SDS011;6473;51.552;6.716;2023-07-16T13:52:35;1.90;;;1.80;;
12816;SDS011;6473;51.552;6.716;2023-07-16T13:55:03;3.38;;;1.90;;
12816;SDS011;6473;51.552;6.716;2023-07-16T13:57:30;4.55;;;2.40;;
12816;SDS011;6473;51.552;6.716;2023-07-16T13:59:57;2.10;;;1.95;;
12816;SDS011;6473;51.552;6.716;2023-07-16T14:02:26;3.13;;;2.20;;
12816;SDS011;6473;51.552;6.716;2023-07-16T14:04:54;2.35;;;2.15;;
12816;SDS011;6473;51.552;6.716;2023-07-16T14:07:21;2.90;;;2.50;;
12816;SDS011;6473;51.552;6.716;2023-07-16T14:09:48;4.88;;;2.30;;
12816;SDS011;6473;51.552;6.716;2023-07-16T14:12:15;2.13;;;1.90;;
12816;SDS011;6473;51.552;6.716;2023-07-16T14:14:42;3.25;;;2.00;;
12816;SDS011;6473;51.552;6.716;2023-07-16T14:17:09;2.90;;;2.05;;
12816;SDS011;6473;51.552;6.716;2023-07-16T14:19:37;3.03;;;2.20;;
12816;SDS011;6473;51.552;6.716;2023-07-16T14:22:04;3.70;;;1.70;;
12816;SDS011;6473;51.552;6.716;2023-07-16T14:24:32;3.63;;;1.80;;
12816;SDS011;6473;51.552;6.716;2023-07-16T14:26:59;3.60;;;1.77;;
12816;SDS011;6473;51.552;6.716;2023-07-16T14:29:27;2.97;;;2.00;;
12816;SDS011;6473;51.552;6.716;2023-07-16T14:31:54;2.88;;;1.90;;
12816;SDS011;6473;51.552;6.716;2023-07-16T14:34:21;2.20;;;2.00;;
12816;SDS011;6473;51.552;6.716;2023-07-16T14:36:50;2.15;;;1.95;;
12816;SDS011;6473;51.552;6.716;2023-07-16T14:39:17;3.10;;;1.77;;
12816;SDS011;6473;51.552;6.716;2023-07-16T14:41:44;1.77;;;1.67;;
12816;SDS011;6473;51.552;6.716;2023-07-16T14:44:11;2.15;;;1.80;;
12816;SDS011;6473;51.552;6.716;2023-07-16T14:46:38;2.05;;;1.95;;
12816;SDS011;6473;51.552;6.716;2023-07-16T14:49:05;2.20;;;1.95;;
12816;SDS011;6473;51.552;6.716;2023-07-16T14:51:32;3.00;;;1.83;;
12816;SDS011;6473;51.552;6.716;2023-07-16T14:54:06;4.15;;;1.83;;
12816;SDS011;6473;51.552;6.716;2023-07-16T14:56:33;2.47;;;2.22;;
12816;SDS011;6473;51.552;6.716;2023-07-16T14:59:00;1.85;;;1.75;;
12816;SDS011;6473;51.552;6.716;2023-07-16T15:01:28;4.03;;;2.20;;
12816;SDS011;6473;51.552;6.716;2023-07-16T15:03:55;3.20;;;2.00;;
12816;SDS011;6473;51.552;6.716;2023-07-16T15:06:22;3.15;;;2.10;;